createdAt,value
2022-12-26T00:02:34.660Z,5.53
2022-12-26T00:07:36.229Z,5.58
2022-12-26T00:12:37.733Z,5.56
2022-12-26T00:17:39.457Z,5.53
2022-12-26T00:22:40.916Z,5.53
2022-12-26T00:27:42.342Z,5.51
2022-12-26T00:32:43.888Z,5.56
2022-12-26T00:37:45.370Z,5.55
2022-12-26T00:42:46.958Z,5.51
2022-12-26T00:47:48.396Z,5.46
2022-12-26T00:52:49.876Z,5.45
2022-12-26T00:57:51.388Z,5.56
2022-12-26T01:02:52.959Z,5.49
2022-12-26T01:08:21.912Z,5.60
2022-12-26T01:13:15.921Z,5.53
2022-12-26T01:18:17.981Z,5.56
2022-12-26T01:23:19.422Z,5.54
2022-12-26T01:28:20.961Z,5.56
2022-12-26T01:33:22.378Z,5.55
2022-12-26T01:38:24.670Z,5.54
2022-12-26T01:43:26.148Z,5.51
2022-12-26T01:48:34.429Z,5.67
2022-12-26T01:53:39.558Z,5.65
2022-12-26T01:58:49.244Z,5.62
2022-12-26T02:04:09.996Z,5.66
2022-12-26T02:09:11.841Z,5.60
2022-12-26T02:14:13.491Z,5.72
2022-12-26T02:19:36.062Z,5.64
2022-12-26T02:25:05.746Z,5.60
2022-12-26T02:30:44.425Z,5.69
2022-12-26T02:36:12.183Z,5.76
2022-12-26T02:41:25.581Z,5.82
2022-12-26T02:47:01.365Z,5.82
2022-12-26T02:52:34.183Z,5.82
2022-12-26T02:58:04.255Z,5.78
2022-12-26T03:03:30.270Z,5.81
2022-12-26T03:09:02.403Z,5.76
2022-12-26T03:14:16.330Z,5.80
2022-12-26T03:19:19.978Z,5.82
2022-12-26T03:24:22.829Z,5.85
2022-12-26T03:29:43.126Z,5.92
2022-12-26T03:34:44.953Z,5.82
2022-12-26T03:40:12.622Z,5.92
2022-12-26T03:45:38.971Z,6.01
2022-12-26T03:51:07.653Z,5.91
2022-12-26T03:56:43.155Z,5.89
2022-12-26T04:02:07.410Z,5.90
2022-12-26T04:07:32.965Z,5.96
2022-12-26T04:13:07.277Z,5.96
2022-12-26T04:18:33.388Z,6.02
2022-12-26T04:24:04.713Z,6.06
2022-12-26T04:29:25.138Z,6.00
2022-12-26T04:34:51.754Z,6.01
2022-12-26T04:40:14.683Z,6.03
2022-12-26T04:45:16.496Z,6.14
2022-12-26T04:50:17.956Z,6.10
2022-12-26T04:55:19.487Z,6.06
2022-12-26T05:00:24.002Z,6.13
2022-12-26T05:05:44.051Z,6.18
2022-12-26T05:10:45.501Z,6.20
2022-12-26T05:16:05.493Z,6.13
2022-12-26T05:21:32.188Z,6.20
2022-12-26T05:26:52.074Z,6.17
2022-12-26T05:31:53.758Z,6.19
2022-12-26T05:36:58.580Z,6.27
2022-12-26T05:42:00.151Z,6.22
2022-12-26T05:47:01.705Z,6.35
2022-12-26T05:52:03.423Z,6.31
2022-12-26T05:57:04.873Z,6.29
2022-12-26T06:02:06.486Z,6.37
2022-12-26T06:07:08.023Z,6.40
2022-12-26T06:12:09.437Z,6.30
2022-12-26T06:17:11.219Z,6.44
2022-12-26T06:22:12.923Z,6.44
2022-12-26T06:27:14.375Z,6.40
2022-12-26T06:32:16.010Z,6.44
2022-12-26T06:37:17.465Z,6.35
2022-12-26T06:42:18.898Z,6.45
2022-12-26T06:47:20.467Z,6.40
2022-12-26T06:52:21.943Z,6.41
2022-12-26T06:57:23.378Z,6.39
2022-12-26T07:02:25.008Z,6.42
2022-12-26T07:07:26.589Z,6.48
2022-12-26T07:12:28.080Z,6.48
2022-12-26T07:17:29.579Z,6.50
2022-12-26T07:22:31.233Z,6.50
2022-12-26T07:27:32.709Z,6.49
2022-12-26T07:32:34.219Z,6.57
2022-12-26T07:37:35.684Z,6.50
2022-12-26T07:42:37.118Z,6.56
2022-12-26T07:47:38.659Z,6.55
2022-12-26T07:52:40.254Z,6.61
2022-12-26T07:57:49.664Z,6.70
2022-12-26T08:02:53.113Z,6.67
2022-12-26T08:07:54.584Z,6.74
2022-12-26T08:12:56.151Z,6.71
2022-12-26T08:17:57.894Z,6.75
2022-12-26T08:22:59.397Z,6.75
2022-12-26T08:28:00.944Z,6.86
2022-12-26T08:33:02.432Z,6.88
2022-12-26T08:38:04.758Z,6.92
2022-12-26T08:43:42.152Z,6.96
2022-12-26T08:48:28.928Z,6.98
2022-12-26T08:53:32.700Z,7.05
2022-12-26T08:58:35.281Z,7.06
2022-12-26T09:03:37.106Z,7.09
2022-12-26T09:08:39.352Z,7.21
2022-12-26T09:13:41.974Z,7.22
2022-12-26T09:18:45.216Z,7.23
2022-12-26T09:23:46.695Z,7.43
2022-12-26T09:28:48.250Z,7.42
2022-12-26T09:33:50.226Z,7.56
2022-12-26T09:38:52.584Z,7.71
2022-12-26T09:44:07.477Z,7.88
2022-12-26T09:49:26.294Z,8.00
2022-12-26T09:54:33.188Z,8.91
2022-12-26T09:59:46.058Z,8.87
2022-12-26T10:04:47.912Z,9.36
2022-12-26T10:10:18.695Z,9.12
2022-12-26T10:15:47.026Z,8.84
2022-12-26T10:21:03.732Z,8.73
2022-12-26T10:26:24.545Z,8.78
2022-12-26T10:31:35.246Z,8.53
2022-12-26T10:36:46.682Z,8.70
2022-12-26T10:41:52.507Z,8.57
2022-12-26T10:47:04.012Z,8.49
2022-12-26T10:52:05.630Z,8.46
2022-12-26T10:57:09.394Z,8.56
2022-12-26T11:02:22.874Z,8.33
2022-12-26T11:07:27.644Z,8.34
2022-12-26T11:12:51.044Z,8.40
2022-12-26T11:17:54.090Z,8.40
2022-12-26T11:23:12.308Z,8.46
2022-12-26T11:28:34.462Z,8.36
2022-12-26T11:33:46.386Z,8.34
2022-12-26T11:38:50.067Z,8.23
2022-12-26T11:43:53.024Z,8.11
2022-12-26T11:48:54.575Z,8.07
2022-12-26T11:54:17.810Z,8.07
2022-12-26T11:59:22.098Z,8.07
2022-12-26T12:04:23.622Z,7.98
2022-12-26T12:09:46.814Z,7.92
2022-12-26T12:15:16.147Z,7.91
2022-12-26T12:20:25.088Z,8.09
2022-12-26T12:25:38.233Z,8.14
2022-12-26T12:31:00.541Z,8.30
2022-12-26T12:36:20.212Z,8.21
2022-12-26T12:41:59.720Z,8.15
2022-12-26T12:47:15.731Z,7.74
2022-12-26T12:52:38.323Z,7.49
2022-12-26T12:58:11.952Z,7.22
2022-12-26T13:03:36.583Z,7.06
2022-12-26T13:08:46.766Z,6.90
2022-12-26T13:14:12.078Z,6.71
2022-12-26T13:19:21.650Z,6.52
2022-12-26T13:24:35.363Z,6.55
2022-12-26T13:29:42.502Z,6.47
2022-12-26T13:34:45.681Z,6.44
2022-12-26T13:39:51.747Z,6.24
2022-12-26T13:44:54.025Z,6.02
2022-12-26T13:49:55.488Z,5.91
2022-12-26T13:54:57.357Z,5.85
2022-12-26T14:00:04.842Z,5.83
2022-12-26T14:05:18.783Z,5.65
2022-12-26T14:10:32.949Z,5.65
2022-12-26T14:15:40.992Z,5.52
2022-12-26T14:20:52.544Z,5.45
2022-12-26T14:26:23.472Z,5.40
2022-12-26T14:31:47.943Z,5.25
2022-12-26T14:36:55.300Z,5.27
2022-12-26T14:42:57.415Z,5.24
2022-12-26T14:47:59.162Z,5.13
2022-12-26T14:53:28.271Z,4.95
2022-12-26T14:58:40.749Z,4.88
2022-12-26T15:04:01.088Z,4.81
2022-12-26T15:09:08.485Z,4.66
2022-12-26T15:14:28.006Z,4.53
2022-12-26T15:19:54.130Z,4.37
2022-12-26T15:30:28.536Z,4.12
2022-12-26T15:35:43.722Z,4.11
2022-12-26T15:41:00.819Z,3.97
2022-12-26T15:46:27.664Z,4.08
2022-12-26T15:51:44.265Z,4.12
2022-12-26T15:56:59.666Z,4.00
2022-12-26T16:02:01.638Z,4.13
2022-12-26T16:07:15.773Z,4.05
2022-12-26T16:12:28.789Z,4.10
2022-12-26T16:17:30.686Z,3.92
2022-12-26T16:22:46.320Z,3.81
2022-12-26T16:27:51.203Z,3.92
2022-12-26T16:32:53.795Z,3.97
2022-12-26T16:38:00.847Z,4.08
2022-12-26T16:43:27.822Z,4.16
2022-12-26T16:48:31.871Z,4.12
2022-12-26T16:53:36.357Z,4.06
2022-12-26T16:58:38.212Z,4.03
2022-12-26T17:03:52.024Z,4.13
2022-12-26T17:08:55.513Z,4.18
2022-12-26T17:13:58.162Z,4.07
2022-12-26T17:19:16.579Z,3.89
2022-12-26T17:24:25.365Z,3.78
2022-12-26T17:29:46.103Z,3.97
2022-12-26T17:34:48.029Z,4.00
2022-12-26T17:40:12.056Z,4.05
2022-12-26T17:45:33.973Z,4.04
2022-12-26T17:50:38.796Z,3.87
2022-12-26T17:55:41.346Z,3.78
2022-12-26T18:00:44.099Z,3.71
2022-12-26T18:05:47.356Z,3.70
2022-12-26T18:10:48.811Z,3.59
2022-12-26T18:15:51.725Z,3.61
2022-12-26T18:20:53.375Z,3.56
2022-12-26T18:26:00.493Z,3.77
2022-12-26T18:31:02.103Z,3.97
2022-12-26T18:36:07.625Z,3.90
2022-12-26T18:41:14.158Z,3.80
2022-12-26T18:46:25.253Z,3.76
2022-12-26T18:51:27.897Z,3.82
2022-12-26T18:56:29.624Z,3.69
2022-12-26T19:01:31.297Z,3.55
2022-12-26T19:06:35.172Z,3.47
2022-12-26T19:11:36.653Z,3.29
2022-12-26T19:16:38.708Z,3.17
2022-12-26T19:21:40.318Z,3.07
2022-12-26T19:26:41.793Z,3.18
2022-12-26T19:31:43.532Z,3.32
2022-12-26T19:36:45.102Z,3.27
2022-12-26T19:41:47.812Z,3.33
2022-12-26T19:46:49.279Z,3.43
2022-12-26T19:52:11.741Z,3.43
2022-12-26T19:57:13.149Z,3.46
2022-12-26T20:02:14.962Z,3.46
2022-12-26T20:07:16.528Z,3.27
2022-12-26T20:12:17.970Z,3.28
2022-12-26T20:17:19.503Z,3.29
2022-12-26T20:22:20.963Z,3.40
2022-12-26T20:27:22.556Z,3.53
2022-12-26T20:32:24.117Z,3.56
2022-12-26T20:37:25.649Z,3.60
2022-12-26T20:42:27.069Z,3.44
2022-12-26T20:47:30.186Z,3.53
2022-12-26T20:52:31.599Z,3.59
2022-12-26T20:57:33.070Z,3.54
2022-12-26T21:02:34.710Z,3.49
2022-12-26T21:07:36.346Z,3.30
2022-12-26T21:12:37.835Z,3.19
2022-12-26T21:17:39.500Z,3.02
2022-12-26T21:22:41.652Z,3.08
2022-12-26T21:27:43.343Z,3.14
2022-12-26T21:32:46.215Z,3.03
2022-12-26T21:37:53.517Z,2.97
2022-12-26T21:42:55.022Z,2.97
2022-12-26T21:47:56.548Z,2.97
2022-12-26T21:52:58.004Z,2.94
2022-12-26T21:58:00.576Z,2.95
2022-12-26T22:03:21.641Z,2.92
2022-12-26T22:08:23.146Z,2.81
2022-12-26T22:13:25.839Z,2.79
2022-12-26T22:18:27.449Z,2.77
2022-12-26T22:23:28.977Z,2.74
2022-12-26T22:28:31.422Z,2.81
2022-12-26T22:33:33.479Z,2.89
2022-12-26T22:38:36.743Z,2.91
2022-12-26T22:43:38.299Z,2.83
2022-12-26T22:48:40.120Z,2.75
2022-12-26T22:53:42.284Z,2.73
2022-12-26T22:58:43.779Z,2.64
2022-12-26T23:03:45.867Z,2.57
2022-12-26T23:08:48.834Z,2.53
2022-12-26T23:13:50.575Z,2.56
2022-12-26T23:19:16.142Z,2.68
2022-12-26T23:24:19.170Z,2.62
2022-12-26T23:29:41.761Z,2.59
2022-12-26T23:34:43.234Z,2.63
2022-12-26T23:39:44.728Z,2.75
2022-12-26T23:44:46.325Z,2.81
2022-12-26T23:49:47.811Z,2.79
2022-12-26T23:54:49.303Z,2.68
2022-12-26T23:59:50.774Z,2.57
